Time;durP1;ratioP1;P1;durP2;ratioP2;P2;SDS_P1;SDS_P2;PMS_P1;PMS_P2;Temp;Humidity;BMP_temperature;BMP_pressure;BME280_temperature;BME280_humidity;BME280_pressure;Samples;Min_cycle;Max_cycle;Signal;HPM_P1;HPM_P2
2022/05/20 00:00:11;;;;;;;709.50;562.67;;;;;;;9.55;62.14;99305.08;2046342;87;20948;-81
2022/05/20 00:03:12;;;;;;;134.63;105.77;;;;;;;10.66;66.42;99289.63;2046107;87;20972;-79
2022/05/20 00:06:12;;;;;;;42.73;26.20;;;;;;;12.38;60.93;99286.21;2045667;87;21018;-80
2022/05/20 00:09:12;;;;;;;20.73;12.63;;;;;;;11.94;58.29;99290.42;2045703;87;20932;-80
2022/05/20 00:12:13;;;;;;;11.87;8.60;;;;;;;11.28;58.16;99300.31;2045777;87;20980;-79
2022/05/20 00:15:13;;;;;;;14.73;6.73;;;;;;;10.70;58.93;99294.05;2045623;87;20984;-79
2022/05/20 00:18:14;;;;;;;11.47;6.50;;;;;;;10.27;59.75;99296.66;2045604;87;20979;-81
2022/05/20 00:21:14;;;;;;;8.90;6.03;;;;;;;9.99;60.67;99298.66;2045610;87;20976;-79
2022/05/20 00:24:14;;;;;;;9.77;6.40;;;;;;;9.81;61.23;99298.27;2045534;87;20935;-78
2022/05/20 00:27:15;;;;;;;18.63;6.03;;;;;;;9.68;61.64;99298.84;2045457;87;20971;-79
2022/05/20 00:30:15;;;;;;;8.80;5.77;;;;;;;9.53;62.27;99303.24;2045573;87;21007;-79
2022/05/20 00:33:16;;;;;;;8.27;6.27;;;;;;;9.38;62.66;99303.77;2045439;87;21179;-79
2022/05/20 00:36:16;;;;;;;11.60;6.97;;;;;;;9.24;63.21;99294.73;2045395;87;20990;-80
2022/05/20 00:39:17;;;;;;;8.77;6.37;;;;;;;9.17;63.57;99291.53;2045483;87;21372;-79
2022/05/20 00:42:17;;;;;;;10.97;6.20;;;;;;;9.08;64.03;99292.18;2045530;87;21031;-78
2022/05/20 00:45:17;;;;;;;14.60;7.33;;;;;;;9.03;64.42;99299.42;2038907;87;20984;-78
2022/05/20 00:48:18;;;;;;;54.23;9.43;;;;;;;8.98;64.56;99294.52;2033967;88;21320;-79
2022/05/20 00:51:18;;;;;;;18.57;6.77;;;;;;;8.91;64.87;99289.16;2033801;88;20984;-79
2022/05/20 00:54:18;;;;;;;15.17;10.53;;;;;;;8.89;65.01;99287.36;2033612;88;20936;-81
2022/05/20 00:57:19;;;;;;;121.13;74.97;;;;;;;10.26;68.99;99271.41;2033052;88;20913;-80
2022/05/20 01:00:19;;;;;;;280.33;209.37;;;;;;;12.66;65.62;99263.39;2033226;88;20992;-80
2022/05/20 01:03:20;;;;;;;28.03;21.53;;;;;;;15.06;59.89;99251.67;2033315;88;21316;-84
2022/05/20 01:06:20;;;;;;;97.53;18.23;;;;;;;14.62;54.13;99249.41;2033049;88;21060;-80
2022/05/20 01:09:20;;;;;;;16.93;9.17;;;;;;;13.35;54.36;99257.50;2033144;88;20980;-81
2022/05/20 01:12:21;;;;;;;17.67;6.93;;;;;;;12.40;55.33;99259.19;2033781;88;20984;-81
2022/05/20 01:15:21;;;;;;;23.57;7.80;;;;;;;11.66;56.29;99262.98;2033992;88;20945;-80
2022/05/20 01:18:22;;;;;;;12.47;7.33;;;;;;;11.08;57.11;99262.49;2033779;88;21372;-80
2022/05/20 01:21:22;;;;;;;12.97;6.97;;;;;;;10.58;58.41;99262.92;2033619;88;20951;-79
2022/05/20 01:24:22;;;;;;;12.63;6.83;;;;;;;10.28;59.62;99277.54;2033633;88;21288;-79
2022/05/20 01:27:23;;;;;;;13.23;7.27;;;;;;;10.02;60.48;99284.37;2033799;88;20984;-81
2022/05/20 01:30:23;;;;;;;58.60;9.33;;;;;;;9.90;61.51;99274.99;2033943;88;20978;-79
2022/05/20 01:33:24;;;;;;;17.13;7.30;;;;;;;9.80;61.77;99270.00;2033448;88;21008;-81
2022/05/20 01:36:24;;;;;;;19.10;7.63;;;;;;;9.64;62.08;99264.42;2033590;88;20976;-80
2022/05/20 01:39:24;;;;;;;12.77;6.87;;;;;;;9.50;62.73;99266.69;2033776;88;20945;-81
2022/05/20 01:42:25;;;;;;;11.93;6.73;;;;;;;9.37;63.06;99262.92;2033964;88;21245;-80
2022/05/20 01:45:25;;;;;;;11.93;6.83;;;;;;;9.28;63.40;99265.31;2039388;86;21039;-80
2022/05/20 01:48:25;;;;;;;14.87;7.47;;;;;;;9.25;63.57;99267.42;2045810;87;20981;-82
2022/05/20 01:51:26;;;;;;;39.53;8.17;;;;;;;9.19;63.96;99265.09;2045615;87;21307;-80
2022/05/20 01:54:26;;;;;;;12.47;7.97;;;;;;;9.09;64.31;99269.63;2046294;87;20971;-83
2022/05/20 01:57:27;;;;;;;21.20;8.37;;;;;;;9.97;68.37;99267.75;2045800;87;20957;-80
2022/05/20 02:00:27;;;;;;;12.33;6.87;;;;;;;10.31;63.46;99272.38;2045592;87;20912;-81
2022/05/20 02:03:28;;;;;;;17.23;7.57;;;;;;;9.90;63.18;99277.17;2045554;87;20932;-80
2022/05/20 02:06:28;;;;;;;16.90;7.30;;;;;;;9.56;63.52;99272.07;2045062;87;20971;-83
2022/05/20 02:09:28;;;;;;;85.13;10.57;;;;;;;9.36;63.99;99265.07;2045639;87;20920;-81
2022/05/20 02:12:29;;;;;;;10.77;7.20;;;;;;;9.20;64.57;99259.92;2045880;87;20946;-81
2022/05/20 02:15:29;;;;;;;14.07;7.20;;;;;;;9.08;64.81;99247.91;2045665;87;20940;-81
2022/05/20 02:18:29;;;;;;;134.30;94.63;;;;;;;9.01;65.11;99249.03;2046311;87;20927;-81
2022/05/20 02:21:30;;;;;;;85.23;48.93;;;;;;;11.55;70.76;99242.77;2045280;87;21319;-81
2022/05/20 02:24:30;;;;;;;20.07;14.23;;;;;;;13.77;60.78;99230.66;2045380;87;20912;-81
2022/05/20 02:27:31;;;;;;;18.43;9.27;;;;;;;12.75;57.75;99234.66;2045417;87;20963;-80
2022/05/20 02:30:32;;;;;;;61.60;26.03;;;;;;;11.76;58.12;99232.61;2045208;87;21311;-80
2022/05/20 02:33:32;;;;;;;16.53;8.83;;;;;;;11.05;59.10;99238.94;2045321;87;20980;-80
2022/05/20 02:36:33;;;;;;;24.00;7.67;;;;;;;10.51;59.99;99237.13;2045144;87;21011;-82
2022/05/20 02:39:33;;;;;;;12.07;6.60;;;;;;;10.04;60.85;99229.22;2045142;87;21364;-79
2022/05/20 02:42:33;;;;;;;11.43;7.30;;;;;;;9.74;61.57;99239.02;2045259;87;20900;-79
2022/05/20 02:45:33;;;;;;;11.90;7.73;;;;;;;9.50;62.65;99238.02;2039181;86;20961;-79
2022/05/20 02:48:34;;;;;;;25.97;8.93;;;;;;;9.36;64.05;99242.05;2033197;88;20982;-79
2022/05/20 02:51:34;;;;;;;14.53;7.73;;;;;;;9.90;64.76;99233.27;2033513;88;20927;-80
2022/05/20 02:54:34;;;;;;;20.20;7.03;;;;;;;10.15;62.85;99237.25;2033500;88;21388;-82
2022/05/20 02:57:36;;;;;;;26.03;7.57;;;;;;;9.81;62.59;99232.66;2033386;88;21052;-82
2022/05/20 03:04:12;;;;;;;33.13;9.33;;;;;;;9.30;63.60;99220.64;2033414;87;20920;-80
2022/05/20 03:07:13;;;;;;;38.00;8.57;;;;;;;9.14;64.09;99219.83;2033706;87;21012;-80
2022/05/20 03:10:13;;;;;;;16.10;7.37;;;;;;;9.00;64.56;99219.92;2033488;88;21324;-81
2022/05/20 03:13:13;;;;;;;42.70;10.57;;;;;;;8.97;64.91;99223.76;2033257;88;20940;-80
2022/05/20 03:16:14;;;;;;;15.00;7.20;;;;;;;8.98;65.15;99223.80;2033417;88;20952;-81
2022/05/20 03:19:15;;;;;;;12.67;6.53;;;;;;;8.98;65.15;99230.73;2032805;88;20976;-80
2022/05/20 03:22:14;;;;;;;13.77;6.90;;;;;;;9.00;65.46;99235.12;2033337;88;20984;-80
2022/05/20 03:25:15;;;;;;;11.60;6.53;;;;;;;9.03;65.56;99231.72;2033353;88;20980;-83
2022/05/20 03:28:15;;;;;;;17.77;7.73;;;;;;;9.05;65.66;99233.94;2033639;88;21387;-80
2022/05/20 03:31:16;;;;;;;13.53;6.57;;;;;;;9.09;65.73;99224.05;2033077;88;20981;-79
2022/05/20 03:34:17;;;;;;;13.73;6.03;;;;;;;9.18;65.58;99223.84;2033366;87;21100;-80
2022/05/20 03:37:16;;;;;;;25.93;15.53;;;;;;;9.33;65.57;99221.13;2032916;88;21492;-80
2022/05/20 03:40:17;;;;;;;32.43;7.40;;;;;;;9.46;65.59;99224.05;2032637;88;20972;-81
2022/05/20 03:43:17;;;;;;;377.17;31.80;;;;;;;9.71;65.83;99233.73;2032901;88;20952;-79
2022/05/20 03:46:18;;;;;;;23.17;8.17;;;;;;;9.92;65.66;99222.45;2033258;86;20992;-80
2022/05/20 03:49:18;;;;;;;208.37;19.90;;;;;;;10.10;65.17;99220.20;2032420;88;20944;-79
2022/05/20 03:52:18;;;;;;;92.03;12.23;;;;;;;10.16;65.05;99219.02;2032367;88;21292;-81
2022/05/20 03:55:19;;;;;;;110.27;10.87;;;;;;;10.30;64.92;99210.61;2033074;88;21003;-80
2022/05/20 03:58:19;;;;;;;26.23;9.27;;;;;;;10.38;65.01;99213.81;2032828;88;20988;-78
2022/05/20 04:04:39;;;;;;;16.67;7.67;;;;;;;10.65;64.95;99213.88;2084418;85;21043;-80
2022/05/20 04:07:39;;;;;;;16.20;7.57;;;;;;;10.79;65.09;99208.47;2047006;87;21438;-81
2022/05/20 04:10:40;;;;;;;12.23;7.13;;;;;;;10.93;65.23;99206.96;2046849;86;20966;-78
2022/05/20 04:13:40;;;;;;;8.93;6.60;;;;;;;11.21;65.62;99206.08;2046473;86;20947;-79
2022/05/20 04:16:41;;;;;;;28.17;8.30;;;;;;;11.46;65.82;99199.96;2046163;86;21362;-80
2022/05/20 04:19:41;;;;;;;13.97;7.20;;;;;;;11.72;66.19;99205.53;2046258;86;20987;-80
2022/05/20 04:22:41;;;;;;;15.33;7.37;;;;;;;11.94;65.87;99208.02;2046480;87;20971;-81
2022/05/20 04:25:42;;;;;;;12.07;7.00;;;;;;;12.16;65.59;99203.07;2045950;86;20990;-80
2022/05/20 04:28:42;;;;;;;21.48;7.95;;;;;;;12.49;65.09;99202.11;2046666;87;21011;-79
2022/05/20 04:31:42;;;;;;;13.90;8.10;;;;;;;12.77;64.88;99204.55;2046701;87;21347;-81
2022/05/20 04:34:43;;;;;;;12.65;7.37;;;;;;;12.96;64.28;99194.67;2046278;86;20995;-81
2022/05/20 04:37:43;;;;;;;16.37;7.95;;;;;;;13.15;64.17;99195.72;2046311;86;21398;-80
2022/05/20 04:40:44;;;;;;;14.87;6.72;;;;;;;13.42;64.25;99194.17;2046655;87;20995;-80
2022/05/20 04:47:03;;;;;;;13.78;8.40;;;;;;;13.91;63.51;99188.33;2092920;84;21003;-80
2022/05/20 04:50:03;;;;;;;9.03;6.72;;;;;;;14.05;62.49;99194.06;2045155;87;20998;-80
2022/05/20 04:53:04;;;;;;;21.27;7.25;;;;;;;14.14;62.11;99188.41;2044768;87;20952;-79
2022/05/20 04:56:04;;;;;;;35.28;7.55;;;;;;;14.33;61.93;99188.02;2044864;87;20950;-78
2022/05/20 04:59:05;;;;;;;23.32;7.00;;;;;;;14.79;62.21;99194.72;2043959;87;21381;-78
2022/05/20 05:02:05;;;;;;;38.48;5.62;;;;;;;15.49;61.01;99188.07;2043715;87;20955;-79
2022/05/20 05:05:05;;;;;;;19.35;3.90;;;;;;;16.24;57.37;99185.64;2044374;87;21402;-80
2022/05/20 05:08:06;;;;;;;10.65;4.08;;;;;;;17.02;55.12;99179.00;2044340;86;21058;-80
2022/05/20 05:11:06;;;;;;;60.25;6.87;;;;;;;17.63;50.89;99180.61;2044442;87;21027;-78
2022/05/20 05:14:07;;;;;;;14.80;3.72;;;;;;;17.99;49.43;99175.37;2044585;87;21584;-77
2022/05/20 05:17:07;;;;;;;15.53;3.25;;;;;;;18.28;48.15;99173.69;2045360;87;21010;-79
2022/05/20 05:20:07;;;;;;;14.83;3.52;;;;;;;18.46;46.82;99178.71;2044621;87;20960;-79
2022/05/20 05:23:08;;;;;;;7.00;3.35;;;;;;;18.65;46.16;99178.02;2044372;87;21041;-79
2022/05/20 05:26:08;;;;;;;35.70;5.10;;;;;;;18.81;45.77;99181.75;2043847;87;20961;-79
2022/05/20 05:29:09;;;;;;;21.25;3.92;;;;;;;18.90;45.14;99178.95;2043782;87;20996;-80
2022/05/20 05:32:09;;;;;;;11.93;3.30;;;;;;;19.02;44.89;99181.39;2044357;87;20953;-79
2022/05/20 05:35:09;;;;;;;8.00;2.60;;;;;;;19.15;44.37;99180.31;2044920;86;21334;-77
2022/05/20 05:38:10;;;;;;;12.40;3.17;;;;;;;19.30;43.49;99182.69;2044377;87;21013;-79
2022/05/20 05:41:10;;;;;;;9.85;3.10;;;;;;;19.47;43.57;99182.38;2044860;87;21010;-78
2022/05/20 05:44:11;;;;;;;12.73;3.00;;;;;;;19.67;43.29;99188.20;2045089;86;21001;-78
2022/05/20 05:47:11;;;;;;;8.43;3.05;;;;;;;19.82;42.73;99187.48;2048822;85;21031;-77
2022/05/20 05:50:11;;;;;;;9.90;3.02;;;;;;;19.92;42.53;99185.94;2049692;87;21000;-78
2022/05/20 05:53:12;;;;;;;6.28;3.17;;;;;;;20.11;42.26;99194.41;2048443;87;20983;-78
2022/05/20 05:56:13;;;;;;;63.30;8.45;;;;;;;20.30;42.01;99193.56;2048674;87;21003;-77
2022/05/20 05:59:13;;;;;;;15.53;4.03;;;;;;;20.45;41.55;99185.30;2048748;87;20927;-78
2022/05/20 06:02:13;;;;;;;11.93;3.33;;;;;;;20.55;41.83;99181.53;2049561;87;21633;-81
2022/05/20 06:05:13;;;;;;;14.13;4.67;;;;;;;20.83;41.45;99182.23;2049374;87;20919;-80
2022/05/20 06:08:14;;;;;;;9.10;2.98;;;;;;;21.29;40.24;99181.98;2049376;87;21002;-82
2022/05/20 06:11:14;;;;;;;74.37;8.38;;;;;;;21.62;39.50;99177.09;2049613;87;21344;-80
2022/05/20 06:14:14;;;;;;;29.92;3.58;;;;;;;21.94;39.49;99173.56;2049093;87;20912;-77
2022/05/20 06:17:16;;;;;;;11.95;3.40;;;;;;;22.37;38.05;99166.12;2050089;87;20996;-83
2022/05/20 06:20:15;;;;;;;9.05;2.90;;;;;;;22.46;37.53;99168.50;2049974;87;21284;-82
2022/05/20 06:23:16;;;;;;;11.38;2.80;;;;;;;22.51;36.94;99174.55;2049786;87;20963;-80
2022/05/20 06:26:16;;;;;;;9.65;2.70;;;;;;;22.69;36.56;99176.66;2050061;87;20971;-81
2022/05/20 06:29:16;;;;;;;13.13;2.70;;;;;;;22.70;36.31;99174.87;2049996;87;20944;-80
2022/05/20 06:32:17;;;;;;;8.38;2.47;;;;;;;22.69;37.18;99180.65;2050034;87;20987;-80
2022/05/20 06:41:57;;;;;;;42.55;5.65;;;;;;;22.88;37.33;99192.94;2050389;87;20987;-80
2022/05/20 06:44:57;;;;;;;11.57;2.95;;;;;;;22.88;35.88;99192.48;2049821;87;21343;-83
2022/05/20 06:47:58;;;;;;;14.73;2.80;;;;;;;22.63;36.42;99189.28;2044064;87;21040;-79
2022/05/20 06:51:00;;;;;;;15.30;2.72;;;;;;;22.58;36.00;99190.76;2043815;87;20920;-81
2022/05/20 06:54:04;;;;;;;23.52;3.00;;;;;;;22.63;36.33;99190.16;2043297;87;20947;-81
2022/05/20 06:57:04;;;;;;;254.95;19.73;;;;;;;22.84;36.99;99188.17;2043417;87;20939;-77
2022/05/20 07:00:05;;;;;;;11.50;2.95;;;;;;;22.97;35.89;99184.66;2043219;87;20944;-77
2022/05/20 07:03:05;;;;;;;10.35;2.85;;;;;;;23.14;35.80;99194.73;2043416;87;21438;-80
2022/05/20 07:06:05;;;;;;;13.35;2.80;;;;;;;23.30;35.95;99193.76;2043918;87;21026;-81
2022/05/20 07:09:06;;;;;;;8.28;2.70;;;;;;;23.25;35.85;99197.91;2043664;87;20992;-80
2022/05/20 07:12:06;;;;;;;10.00;2.72;;;;;;;23.20;36.05;99201.19;2043782;87;20943;-77
2022/05/20 07:15:07;;;;;;;15.95;5.00;;;;;;;23.22;36.69;99192.69;2044093;87;20948;-79
2022/05/20 07:18:07;;;;;;;39.05;17.05;;;;;;;23.28;36.43;99193.81;2044302;87;20996;-80
2022/05/20 07:21:07;;;;;;;10.65;4.42;;;;;;;23.26;36.52;99198.31;2044340;87;21024;-82
2022/05/20 07:24:08;;;;;;;15.58;3.92;;;;;;;23.06;36.89;99202.11;2044852;87;20983;-81
2022/05/20 07:27:08;;;;;;;14.80;6.70;;;;;;;22.97;37.38;99205.95;2044597;87;20983;-80
2022/05/20 07:30:09;;;;;;;11.05;2.98;;;;;;;22.70;37.80;99210.79;2044478;87;20984;-79
2022/05/20 07:33:09;;;;;;;13.45;3.85;;;;;;;22.39;38.23;99226.79;2044804;87;20955;-79
2022/05/20 07:36:09;;;;;;;15.10;4.40;;;;;;;22.09;39.19;99224.11;2044862;87;20997;-81
2022/05/20 07:39:10;;;;;;;14.68;6.35;;;;;;;21.80;39.64;99231.55;2045170;87;21043;-80
2022/05/20 07:42:11;;;;;;;26.50;6.75;;;;;;;21.48;40.59;99235.03;2044958;87;20924;-81
2022/05/20 07:45:10;;;;;;;16.15;6.00;;;;;;;21.27;42.52;99231.59;2044461;87;20996;-78
2022/05/20 07:48:11;;;;;;;28.07;3.52;;;;;;;21.03;42.87;99240.13;2048659;85;21031;-79
2022/05/20 07:51:11;;;;;;;13.68;4.22;;;;;;;20.78;43.21;99239.35;2057594;87;20951;-81
2022/05/20 07:54:15;;;;;;;7.80;3.70;;;;;;;20.55;43.44;99237.22;2050136;87;21036;-82
2022/05/20 07:57:15;;;;;;;24.02;14.28;;;;;;;20.40;43.74;99236.69;2058990;87;20962;-82
2022/05/20 08:00:16;;;;;;;38.60;19.30;;;;;;;20.18;44.20;99245.06;2043917;87;21011;-82
2022/05/20 08:04:52;;;;;;;18.20;11.15;;;;;;;20.09;44.61;99243.92;2049590;87;20916;-80
2022/05/20 08:06:17;;;;;;;16.42;6.83;;;;;;;20.06;44.71;99240.01;2057013;86;21049;-80
2022/05/20 08:09:17;;;;;;;13.53;4.35;;;;;;;20.11;45.06;99242.11;2050195;87;21011;-83
2022/05/20 08:12:17;;;;;;;11.85;4.60;;;;;;;20.10;44.97;99244.34;2058791;87;20954;-82
2022/05/20 08:15:17;;;;;;;29.05;10.72;;;;;;;20.13;45.12;99237.66;2050499;87;20932;-82
2022/05/20 08:18:18;;;;;;;23.02;7.87;;;;;;;20.15;45.34;99245.58;2057713;87;20990;-82
2022/05/20 08:21:18;;;;;;;35.45;10.53;;;;;;;20.14;45.52;99236.75;2050417;87;20959;-82
2022/05/20 08:24:19;;;;;;;10.68;4.70;;;;;;;20.19;45.85;99237.53;2057498;87;21618;-82
2022/05/20 08:27:19;;;;;;;21.97;7.65;;;;;;;20.26;45.74;99232.52;2049828;87;20935;-81
2022/05/20 08:30:20;;;;;;;21.25;6.12;;;;;;;20.42;45.61;99238.40;2057486;87;21025;-83
2022/05/20 08:33:20;;;;;;;9.68;4.33;;;;;;;20.54;45.58;99237.25;2050430;87;20955;-81
2022/05/20 08:36:20;;;;;;;46.30;9.08;;;;;;;20.71;45.56;99236.42;2057634;87;20974;-81
2022/05/20 08:39:21;;;;;;;12.98;4.67;;;;;;;20.85;45.69;99238.34;2049642;87;21026;-82
2022/05/20 08:42:21;;;;;;;15.98;5.08;;;;;;;20.96;45.37;99232.32;2057945;87;20954;-80
2022/05/20 08:45:21;;;;;;;10.63;4.92;;;;;;;21.06;45.59;99232.09;2049617;87;21319;-81
2022/05/20 08:48:22;;;;;;;15.63;5.28;;;;;;;21.13;45.63;99219.09;2058107;86;21038;-81
2022/05/20 08:51:22;;;;;;;10.75;3.62;;;;;;;21.15;45.81;99220.80;2044076;87;20999;-80
2022/05/20 08:54:23;;;;;;;10.63;4.25;;;;;;;21.21;45.89;99224.63;2044773;87;21300;-81
2022/05/20 08:57:23;;;;;;;6.90;2.92;;;;;;;21.21;46.33;99235.70;2044368;87;20963;-82
2022/05/20 09:00:23;;;;;;;9.38;4.67;;;;;;;21.11;46.50;99225.77;2043689;87;20948;-82
2022/05/20 09:03:26;;;;;;;9.65;4.62;;;;;;;21.12;46.85;99220.00;2043775;87;21377;-81
2022/05/20 09:06:24;;;;;;;12.07;4.15;;;;;;;21.28;46.84;99210.77;2044275;87;21010;-79
2022/05/20 09:09:25;;;;;;;9.93;5.70;;;;;;;21.39;46.79;99209.17;2044056;87;21003;-80
2022/05/20 09:12:25;;;;;;;18.40;10.30;;;;;;;21.58;46.62;99196.69;2044382;87;21332;-79
2022/05/20 09:15:44;;;;;;;15.80;6.28;;;;;;;21.83;46.52;99208.00;2043732;87;21096;-81
2022/05/20 09:18:44;;;;;;;15.10;6.78;;;;;;;21.96;46.55;99200.09;2043041;87;21688;-81
2022/05/20 09:21:47;;;;;;;12.05;5.50;;;;;;;22.18;46.68;99199.92;2043434;87;20960;-81
2022/05/20 09:24:45;;;;;;;8.15;3.67;;;;;;;22.30;46.58;99202.67;2042789;87;20948;-81
2022/05/20 09:27:46;;;;;;;12.85;4.28;;;;;;;22.51;46.27;99205.14;2042797;87;21024;-82
2022/05/20 09:30:50;;;;;;;17.02;4.65;;;;;;;22.83;45.72;99204.19;2043034;87;21359;-82
2022/05/20 09:33:48;;;;;;;8.50;4.20;;;;;;;23.19;45.40;99198.98;2013502;87;20920;-83
2022/05/20 09:36:49;;;;;;;8.25;4.28;;;;;;;23.46;44.78;99185.68;2043674;87;21367;-79
2022/05/20 09:39:49;;;;;;;13.75;4.10;;;;;;;23.73;44.58;99181.20;2042395;87;21039;-79
2022/05/20 09:42:50;;;;;;;7.50;3.52;;;;;;;23.91;44.44;99158.33;2042595;87;20988;-80
2022/05/20 09:45:50;;;;;;;14.65;3.70;;;;;;;23.93;44.31;99180.47;2042642;87;21067;-79
2022/05/20 09:48:51;;;;;;;13.98;4.25;;;;;;;23.85;44.22;99179.41;2052232;87;21003;-79
2022/05/20 09:51:51;;;;;;;12.55;4.80;;;;;;;23.92;44.57;99161.40;2052832;86;20955;-80
2022/05/20 09:54:52;;;;;;;8.25;4.20;;;;;;;23.88;44.51;99152.64;2052985;87;21039;-79
2022/05/20 09:57:52;;;;;;;12.37;4.03;;;;;;;23.93;44.78;99152.01;2052913;87;20959;-82
2022/05/20 10:00:54;;;;;;;5.33;3.40;;;;;;;24.18;44.47;99149.74;2023871;87;20998;-79
2022/05/20 10:03:57;;;;;;;9.80;3.77;;;;;;;24.41;43.82;99153.78;2051513;87;21063;-78
2022/05/20 10:06:55;;;;;;;12.70;4.97;;;;;;;24.50;44.21;99145.88;2052514;87;21007;-79
2022/05/20 10:09:56;;;;;;;19.30;5.30;;;;;;;24.73;43.99;99150.69;2053402;87;21426;-79
2022/05/20 10:12:56;;;;;;;16.80;4.62;;;;;;;24.90;43.80;99154.00;2053288;87;20959;-81
2022/05/20 10:15:56;;;;;;;9.73;3.92;;;;;;;25.06;43.70;99149.80;2053702;87;20940;-79
2022/05/20 10:18:57;;;;;;;9.33;4.17;;;;;;;25.22;43.33;99143.36;2052628;87;21010;-79
2022/05/20 10:21:57;;;;;;;9.88;3.35;;;;;;;25.46;43.02;99143.23;2052785;87;21386;-81
2022/05/20 10:24:58;;;;;;;7.87;3.52;;;;;;;25.72;42.44;99133.63;2053655;87;20964;-80
2022/05/20 10:27:58;;;;;;;18.65;5.28;;;;;;;25.96;42.56;99135.17;2053654;87;21079;-80
2022/05/20 10:34:17;;;;;;;12.47;3.40;;;;;;;26.54;41.39;99125.78;2052442;86;20956;-79
2022/05/20 10:37:17;;;;;;;8.15;3.50;;;;;;;26.59;41.11;99117.53;2053577;87;20956;-82
2022/05/20 10:40:18;;;;;;;6.53;3.42;;;;;;;26.72;40.52;99120.47;2052783;87;21023;-81
2022/05/20 10:43:18;;;;;;;4.97;3.25;;;;;;;26.76;40.24;99123.39;2051633;87;20923;-80
2022/05/20 10:49:37;;;;;;;12.00;3.45;;;;;;;27.06;39.97;99120.58;2042872;87;21047;-82
2022/05/20 10:52:38;;;;;;;5.70;3.17;;;;;;;27.17;39.48;99114.67;2043588;87;20979;-82
2022/05/20 10:55:39;;;;;;;3.77;2.40;;;;;;;27.40;39.10;99118.84;2043868;87;20947;-81
2022/05/20 10:58:39;;;;;;;5.28;3.20;;;;;;;27.38;38.05;99123.41;2044067;87;21335;-80
2022/05/20 11:01:39;;;;;;;9.13;2.52;;;;;;;27.44;38.46;99109.21;2043695;87;20956;-82
2022/05/20 11:04:39;;;;;;;9.98;2.77;;;;;;;27.41;37.40;99116.55;2044036;87;20993;-82
2022/05/20 11:07:40;;;;;;;6.10;3.30;;;;;;;27.40;37.81;99104.09;2044452;87;21007;-80
2022/05/20 11:10:40;;;;;;;9.93;2.55;;;;;;;27.55;38.11;99107.30;2044697;87;21040;-81
2022/05/20 11:13:41;;;;;;;4.90;2.35;;;;;;;27.59;37.93;99092.31;2044651;87;20928;-78
2022/05/20 11:16:44;;;;;;;4.83;2.77;;;;;;;27.77;37.11;99090.99;2044187;87;20951;-78
2022/05/20 11:19:43;;;;;;;4.08;2.20;;;;;;;27.81;36.66;99092.56;2015511;87;21007;-79
2022/05/20 11:22:44;;;;;;;7.53;2.40;;;;;;;27.94;36.66;99090.94;2044180;87;21328;-80
2022/05/20 11:25:45;;;;;;;6.92;3.15;;;;;;;28.04;35.44;99081.42;2043477;87;20956;-80
2022/05/20 11:28:45;;;;;;;6.25;2.17;;;;;;;28.10;35.61;99082.42;2043662;87;20964;-80
2022/05/20 11:31:45;;;;;;;9.68;2.30;;;;;;;28.19;35.56;99081.05;2043060;87;20983;-81
2022/05/20 11:34:45;;;;;;;20.88;2.40;;;;;;;28.22;34.90;99079.53;2042923;87;21370;-81
2022/05/20 11:37:46;;;;;;;8.15;2.45;;;;;;;28.22;34.83;99074.16;2043125;87;20980;-81
2022/05/20 11:40:46;;;;;;;10.80;3.05;;;;;;;28.41;35.04;99073.53;2043555;87;21510;-81
2022/05/20 11:43:47;;;;;;;4.67;2.22;;;;;;;28.59;35.33;99054.16;2043781;87;20999;-79
2022/05/20 11:46:47;;;;;;;4.75;2.30;;;;;;;28.78;35.04;99048.59;2043612;86;20979;-81
2022/05/20 11:49:47;;;;;;;10.75;2.08;;;;;;;28.98;34.70;99042.94;2052624;87;21059;-82
2022/05/20 11:52:48;;;;;;;4.62;1.90;;;;;;;29.04;33.98;99045.25;2052752;87;21382;-81
2022/05/20 11:55:49;;;;;;;4.60;1.98;;;;;;;28.99;34.34;99047.35;2052993;87;21000;-81
2022/05/20 11:58:49;;;;;;;10.28;2.15;;;;;;;28.96;33.99;99042.64;2052890;87;20928;-80
2022/05/20 12:01:49;;;;;;;14.03;2.45;;;;;;;28.91;33.76;99030.83;2053214;87;20943;-82
2022/05/20 12:04:49;;;;;;;8.60;1.90;;;;;;;28.98;34.26;99017.41;2052715;87;20995;-80
2022/05/20 12:07:50;;;;;;;16.73;2.47;;;;;;;29.29;33.78;99017.73;2052888;87;21358;-79
2022/05/20 12:10:50;;;;;;;25.30;3.10;;;;;;;29.50;32.82;99026.36;2052527;87;20943;-82
2022/05/20 12:13:51;;;;;;;15.68;3.40;;;;;;;29.50;32.85;99023.67;2052438;86;21035;-80
2022/05/20 12:16:51;;;;;;;7.92;2.27;;;;;;;29.69;32.42;99024.23;2053020;87;20962;-82
2022/05/20 12:26:29;;;;;;;5.55;2.17;;;;;;;29.75;31.49;99018.95;2051904;86;20971;-80
2022/05/20 12:29:29;;;;;;;10.88;2.80;;;;;;;29.66;32.00;99013.67;2051340;87;20955;-80
2022/05/20 12:32:31;;;;;;;22.30;2.77;;;;;;;29.66;32.26;99016.36;2051491;87;20920;-81
2022/05/20 12:35:30;;;;;;;5.50;2.45;;;;;;;29.33;32.83;99014.38;2053147;86;20954;-81
2022/05/20 12:38:31;;;;;;;34.20;3.37;;;;;;;29.37;32.91;99003.82;2053382;87;21442;-81
2022/05/20 12:41:31;;;;;;;8.38;2.30;;;;;;;29.52;32.83;99020.88;2053938;87;20924;-81
2022/05/20 12:44:35;;;;;;;12.47;4.60;;;;;;;29.44;32.36;99006.06;2054355;87;20955;-81
2022/05/20 12:47:32;;;;;;;11.33;3.92;;;;;;;29.64;32.34;99007.52;2053662;85;21339;-81
2022/05/20 12:50:32;;;;;;;21.90;3.08;;;;;;;29.71;32.77;99002.14;2054042;87;21019;-83
2022/05/20 12:53:33;;;;;;;2.85;2.08;;;;;;;29.77;32.42;98996.36;2053948;87;20987;-82
2022/05/20 12:56:33;;;;;;;6.42;2.62;;;;;;;29.44;32.82;98999.82;2053772;87;20943;-84
2022/05/20 12:59:33;;;;;;;12.63;3.12;;;;;;;29.51;32.84;98998.50;2053586;87;20955;-84
2022/05/20 13:02:34;;;;;;;20.37;2.50;;;;;;;29.46;32.97;98984.45;2053909;87;20952;-83
2022/05/20 13:05:37;;;;;;;13.58;2.45;;;;;;;29.57;32.89;98987.36;2053272;86;20974;-83
2022/05/20 13:08:37;;;;;;;7.17;2.30;;;;;;;29.64;33.12;98981.97;2053047;87;21317;-83
2022/05/20 13:11:38;;;;;;;9.70;2.17;;;;;;;29.95;32.98;98981.34;2053248;87;20959;-81
2022/05/20 13:14:38;;;;;;;7.53;2.60;;;;;;;29.83;32.22;98988.37;2053989;87;20951;-80
2022/05/20 13:17:39;;;;;;;5.85;2.08;;;;;;;29.69;32.81;98980.33;2053859;87;21360;-80
2022/05/20 13:20:39;;;;;;;2.50;2.30;;;;;;;29.61;32.73;98983.52;2052830;87;20986;-81
2022/05/20 13:23:39;;;;;;;4.00;2.20;;;;;;;29.56;33.29;98964.59;2052563;87;20924;-81
2022/05/20 13:26:41;;;;;;;7.80;2.33;;;;;;;29.55;33.30;98958.35;2052369;87;21414;-82
2022/05/20 13:29:40;;;;;;;5.20;1.62;;;;;;;29.27;33.29;98965.89;2053477;87;20916;-80
2022/05/20 13:32:41;;;;;;;5.97;2.10;;;;;;;29.36;32.99;98963.97;2053332;87;20967;-83
2022/05/20 13:35:41;;;;;;;3.80;2.20;;;;;;;29.57;32.71;98959.12;2052978;87;20975;-83
2022/05/20 13:38:42;;;;;;;7.65;2.10;;;;;;;29.48;32.30;98952.98;2053770;87;20967;-81
2022/05/20 13:41:42;;;;;;;9.20;2.12;;;;;;;29.33;32.78;98943.13;2054839;87;20940;-81
2022/05/20 13:44:42;;;;;;;11.80;3.55;;;;;;;29.14;33.26;98950.14;2054174;87;21003;-81
2022/05/20 13:51:02;;;;;;;8.68;2.67;;;;;;;28.78;34.03;98944.70;2054082;86;21438;-79
2022/05/20 13:54:03;;;;;;;7.12;3.37;;;;;;;28.89;34.10;98941.39;2054433;87;20979;-83
2022/05/20 13:57:02;;;;;;;10.20;3.20;;;;;;;28.90;34.17;98938.23;2054267;87;20931;-81
2022/05/20 14:00:05;;;;;;;13.75;2.83;;;;;;;28.79;34.17;98934.34;2054226;87;21012;-81
2022/05/20 14:03:03;;;;;;;4.53;2.80;;;;;;;28.94;34.43;98937.94;2052963;87;20956;-80
2022/05/20 14:06:03;;;;;;;6.80;2.08;;;;;;;29.25;34.10;98936.03;2053757;87;21019;-81
2022/05/20 14:09:04;;;;;;;6.37;2.70;;;;;;;29.36;33.04;98932.19;2054353;87;20959;-82
2022/05/20 14:12:04;;;;;;;8.18;3.95;;;;;;;29.54;33.51;98925.70;2054378;87;21000;-81
2022/05/20 14:15:05;;;;;;;7.37;3.75;;;;;;;29.88;32.27;98920.81;2053943;87;20994;-82
2022/05/20 14:18:05;;;;;;;8.10;3.10;;;;;;;30.11;32.21;98924.22;2053746;87;21636;-81
2022/05/20 14:21:06;;;;;;;7.03;3.65;;;;;;;30.24;31.69;98925.13;2053656;86;21406;-81
2022/05/20 14:24:07;;;;;;;9.35;5.95;;;;;;;30.27;32.45;98913.28;2054073;87;20900;-81
2022/05/20 14:27:06;;;;;;;68.15;6.65;;;;;;;30.39;32.66;98910.66;2053829;87;21383;-82
2022/05/20 14:30:07;;;;;;;8.05;3.10;;;;;;;30.34;32.11;98924.02;2054362;87;20954;-82
2022/05/20 14:33:07;;;;;;;7.67;2.47;;;;;;;30.36;31.22;98900.58;2054490;87;20984;-78
2022/05/20 14:36:08;;;;;;;4.50;2.22;;;;;;;30.35;31.43;98907.79;2054551;87;20960;-82